createdAt,value
2019-02-05T00:00:04.508Z,94518.44
2019-02-05T00:00:36.029Z,94518.44
2019-02-05T00:01:03.169Z,94519.12
2019-02-05T00:01:27.568Z,94516.31
2019-02-05T00:01:50.468Z,94517.98
2019-02-05T00:02:13.329Z,94516.83
2019-02-05T00:02:36.243Z,94520.91
2019-02-05T00:02:59.069Z,94515.20
2019-02-05T00:03:22.849Z,94513.45
2019-02-05T00:03:45.790Z,94504.70
2019-02-05T00:04:08.650Z,94506.50
2019-02-05T00:04:31.569Z,94506.50
2019-02-05T00:04:54.529Z,94508.74
2019-02-05T00:05:18.829Z,94506.54
2019-02-05T00:05:41.708Z,94515.08
2019-02-05T00:06:04.809Z,94504.66
2019-02-05T00:06:27.729Z,94506.82
2019-02-05T00:06:50.648Z,94510.45
2019-02-05T00:07:13.509Z,94509.46
2019-02-05T00:07:36.788Z,94511.49
2019-02-05T00:07:59.731Z,94507.23
2019-02-05T00:08:22.649Z,94504.58
2019-02-05T00:08:45.630Z,94504.92
2019-02-05T00:09:08.529Z,94499.46
2019-02-05T00:09:31.431Z,94499.46
2019-02-05T00:09:54.568Z,94504.98
2019-02-05T00:10:17.588Z,94502.32
2019-02-05T00:10:40.489Z,94500.97
2019-02-05T00:11:03.348Z,94505.23
2019-02-05T00:11:26.689Z,94503.45
2019-02-05T00:11:51.629Z,94506.54
2019-02-05T00:12:15.229Z,94504.25
2019-02-05T00:12:38.148Z,94500.34
2019-02-05T00:13:00.948Z,94500.93
2019-02-05T00:13:24.991Z,94501.24
2019-02-05T00:13:47.848Z,94503.58
2019-02-05T00:14:11.287Z,94501.66
2019-02-05T00:14:35.088Z,94506.55
2019-02-05T00:14:58.009Z,94501.64
2019-02-05T00:15:20.929Z,94501.92
2019-02-05T00:15:44.291Z,94499.54
2019-02-05T00:16:07.252Z,94505.87
2019-02-05T00:16:30.169Z,94499.98
2019-02-05T00:16:53.828Z,94502.45
2019-02-05T00:17:16.868Z,94503.45
2019-02-05T00:17:39.769Z,94503.81
2019-02-05T00:18:03.169Z,94502.88
2019-02-05T00:18:26.108Z,94496.98
2019-02-05T00:18:51.544Z,94501.98
2019-02-05T00:19:13.789Z,94501.33
2019-02-05T00:19:36.646Z,94502.59
2019-02-05T00:19:59.492Z,94501.56
2019-02-05T00:20:22.545Z,94501.05
2019-02-05T00:20:45.428Z,94498.40
2019-02-05T00:21:08.609Z,94502.48
2019-02-05T00:21:31.549Z,94499.76
2019-02-05T00:21:54.548Z,94498.43
2019-02-05T00:22:17.412Z,94500.34
2019-02-05T00:22:41.130Z,94496.80
2019-02-05T00:23:04.008Z,94497.28
2019-02-05T00:23:26.949Z,94496.91
2019-02-05T00:23:49.809Z,94495.74
2019-02-05T00:24:12.789Z,94491.92
2019-02-05T00:24:36.468Z,94499.05
2019-02-05T00:24:59.528Z,94499.98
2019-02-05T00:25:22.649Z,94493.97
2019-02-05T00:25:45.489Z,94500.66
2019-02-05T00:26:08.369Z,94494.54
2019-02-05T00:26:31.309Z,94496.73
2019-02-05T00:26:54.269Z,94497.55
2019-02-05T00:27:17.228Z,94495.48
2019-02-05T00:27:40.150Z,94500.77
2019-02-05T00:28:02.989Z,94498.05
2019-02-05T00:28:26.051Z,94495.70
2019-02-05T00:28:48.829Z,94497.73
2019-02-05T00:29:11.730Z,94498.05
2019-02-05T00:29:34.781Z,94495.83
2019-02-05T00:29:57.849Z,94496.30
2019-02-05T00:30:20.829Z,94500.70
2019-02-05T00:30:43.688Z,94498.67
2019-02-05T00:31:06.630Z,94495.63
2019-02-05T00:31:29.728Z,94493.41
2019-02-05T00:31:52.588Z,94495.88
2019-02-05T00:32:15.427Z,94492.91
2019-02-05T00:32:38.211Z,94494.58
2019-02-05T00:33:01.128Z,94494.51
2019-02-05T00:33:24.009Z,94495.58
2019-02-05T00:33:46.928Z,94488.25
2019-02-05T00:34:09.728Z,94487.37
2019-02-05T00:34:32.669Z,94490.11
2019-02-05T00:34:56.089Z,94488.38
2019-02-05T00:35:18.891Z,94488.36
2019-02-05T00:35:42.109Z,94492.58
2019-02-05T00:36:04.889Z,94489.69
2019-02-05T00:36:27.869Z,94494.58
2019-02-05T00:36:50.750Z,94493.22
2019-02-05T00:37:13.531Z,94498.55
2019-02-05T00:37:37.009Z,94491.22
2019-02-05T00:37:59.849Z,94489.79
2019-02-05T00:38:22.809Z,94490.98
2019-02-05T00:38:45.769Z,94492.89
2019-02-05T00:39:09.829Z,94492.25
2019-02-05T00:39:32.811Z,94491.19
2019-02-05T00:39:55.676Z,94494.69
2019-02-05T00:40:18.449Z,94497.09
2019-02-05T00:40:43.689Z,94494.05
2019-02-05T00:41:06.529Z,94489.62
2019-02-05T00:41:29.349Z,94490.26
2019-02-05T00:41:52.169Z,94494.05
2019-02-05T00:42:16.768Z,94492.91
2019-02-05T00:42:40.129Z,94489.62
2019-02-05T00:43:02.813Z,94487.05
2019-02-05T00:43:25.629Z,94489.48
2019-02-05T00:43:48.549Z,94490.56
2019-02-05T00:44:11.429Z,94484.72
2019-02-05T00:44:34.308Z,94490.44
2019-02-05T00:44:57.271Z,94486.89
2019-02-05T00:45:20.288Z,94488.59
2019-02-05T00:45:43.248Z,94489.14
2019-02-05T00:46:06.690Z,94482.13
2019-02-05T00:46:29.610Z,94483.92
2019-02-05T00:46:52.569Z,94486.22
2019-02-05T00:47:15.589Z,94482.58
2019-02-05T00:47:38.449Z,94481.88
2019-02-05T00:48:01.249Z,94483.70
2019-02-05T00:48:24.768Z,94488.29
2019-02-05T00:48:47.809Z,94482.14
2019-02-05T00:49:11.089Z,94481.45
2019-02-05T00:49:33.889Z,94479.31
2019-02-05T00:49:56.769Z,94484.97
2019-02-05T00:50:19.648Z,94484.61
2019-02-05T00:50:42.651Z,94477.74
2019-02-05T00:51:05.449Z,94475.76
2019-02-05T00:51:28.309Z,94482.09
2019-02-05T00:51:51.249Z,94482.81
2019-02-05T00:52:14.148Z,94480.30
2019-02-05T00:52:37.249Z,94475.45
2019-02-05T00:53:00.088Z,94474.69
2019-02-05T00:53:22.968Z,94478.39
2019-02-05T00:53:45.790Z,94473.99
2019-02-05T00:54:08.649Z,94473.68
2019-02-05T00:54:31.528Z,94477.47
2019-02-05T00:54:54.489Z,94478.90
2019-02-05T00:55:17.369Z,94475.94
2019-02-05T00:55:41.089Z,94476.66
2019-02-05T00:56:03.928Z,94480.19
2019-02-05T00:56:26.929Z,94477.85
2019-02-05T00:56:49.889Z,94472.59
2019-02-05T00:57:12.768Z,94474.26
2019-02-05T00:57:35.689Z,94476.50
2019-02-05T00:57:58.508Z,94473.59
2019-02-05T00:58:21.309Z,94472.78
2019-02-05T00:58:44.290Z,94470.42
2019-02-05T00:59:07.648Z,94469.92
2019-02-05T00:59:30.732Z,94473.33
2019-02-05T00:59:53.729Z,94468.37
2019-02-05T01:00:16.729Z,94469.50
2019-02-05T01:00:39.568Z,94469.80
2019-02-05T01:01:02.371Z,94472.34
2019-02-05T01:01:25.349Z,94468.89
2019-02-05T01:01:48.249Z,94471.80
2019-02-05T01:02:11.311Z,94468.52
2019-02-05T01:02:34.230Z,94468.39
2019-02-05T01:02:57.129Z,94470.77
2019-02-05T01:03:20.011Z,94471.75
2019-02-05T01:03:42.828Z,94469.31
2019-02-05T01:04:06.230Z,94472.18
2019-02-05T01:04:29.729Z,94473.30
2019-02-05T01:04:52.627Z,94468.14
2019-02-05T01:05:15.388Z,94473.66
2019-02-05T01:05:38.549Z,94466.23
2019-02-05T01:06:01.449Z,94471.44
2019-02-05T01:06:24.349Z,94469.16
2019-02-05T01:06:48.004Z,94466.46
2019-02-05T01:07:10.909Z,94470.11
2019-02-05T01:07:34.049Z,94466.59
2019-02-05T01:07:57.010Z,94470.14
2019-02-05T01:08:20.116Z,94465.06
2019-02-05T01:08:43.192Z,94465.24
2019-02-05T01:09:06.054Z,94458.55
2019-02-05T01:09:50.931Z,94458.55
2019-02-05T01:10:16.329Z,94463.91
2019-02-05T01:10:38.788Z,94464.91
2019-02-05T01:11:04.789Z,94464.12
2019-02-05T01:11:53.068Z,94468.00
2019-02-05T01:12:33.229Z,94461.38
2019-02-05T01:12:48.700Z,94460.67
2019-02-05T01:13:21.729Z,94460.61
2019-02-05T01:13:46.649Z,94452.95
2019-02-05T01:15:08.949Z,94453.85
2019-02-05T01:17:08.295Z,94450.83
2019-02-05T01:17:53.432Z,94456.16
2019-02-05T01:18:20.609Z,94454.47
2019-02-05T01:18:51.611Z,94455.56
2019-02-05T01:19:23.428Z,94450.86
2019-02-05T01:19:46.870Z,94451.84
2019-02-05T01:20:12.929Z,94451.92
2019-02-05T01:20:37.608Z,94449.78
2019-02-05T01:21:10.851Z,94447.99
2019-02-05T01:21:36.969Z,94443.66
2019-02-05T01:22:06.031Z,94446.77
2019-02-05T01:22:32.629Z,94449.20
2019-02-05T01:23:09.268Z,94446.11
2019-02-05T01:23:26.608Z,94448.41
2019-02-05T01:24:03.948Z,94443.86
2019-02-05T01:24:22.989Z,94445.79
2019-02-05T01:24:46.169Z,94444.27
2019-02-05T01:25:09.115Z,94447.81
2019-02-05T01:25:32.112Z,94442.96
2019-02-05T01:25:56.611Z,94441.91
2019-02-05T01:26:28.931Z,94442.24
2019-02-05T01:26:43.928Z,94440.22
2019-02-05T01:27:09.789Z,94441.34
2019-02-05T01:27:46.330Z,94439.69
2019-02-05T01:28:10.369Z,94435.42
2019-02-05T01:28:33.361Z,94433.47
2019-02-05T01:28:56.149Z,94437.54
2019-02-05T01:29:19.150Z,94440.95
2019-02-05T01:29:41.949Z,94434.57
2019-02-05T01:30:04.929Z,94431.97
2019-02-05T01:30:27.809Z,94431.97
2019-02-05T01:30:50.867Z,94430.66
2019-02-05T01:31:13.908Z,94434.94
2019-02-05T01:31:36.789Z,94437.05
2019-02-05T01:31:59.810Z,94434.44
2019-02-05T01:32:22.588Z,94432.33
2019-02-05T01:32:45.609Z,94433.27
2019-02-05T01:33:08.568Z,94432.46
2019-02-05T01:33:31.470Z,94431.29
2019-02-05T01:33:54.508Z,94433.84
2019-02-05T01:34:17.449Z,94429.44
2019-02-05T01:34:40.369Z,94431.35
2019-02-05T01:35:03.126Z,94430.73
2019-02-05T01:35:26.152Z,94430.18
2019-02-05T01:35:49.838Z,94423.36
2019-02-05T01:36:12.989Z,94428.13
2019-02-05T01:36:37.971Z,94429.27
2019-02-05T01:37:01.642Z,94426.45
2019-02-05T01:37:25.609Z,94430.88
2019-02-05T01:37:50.489Z,94426.95
2019-02-05T01:38:15.689Z,94422.08
2019-02-05T01:38:40.292Z,94426.82
2019-02-05T01:39:04.589Z,94435.08
2019-02-05T01:39:28.369Z,94427.58
2019-02-05T01:39:51.173Z,94428.20
2019-02-05T01:40:13.988Z,94432.11
2019-02-05T01:40:37.929Z,94426.09
2019-02-05T01:41:00.989Z,94427.39
2019-02-05T01:41:23.892Z,94427.63
2019-02-05T01:41:47.649Z,94423.38
2019-02-05T01:42:10.570Z,94423.25
2019-02-05T01:42:33.369Z,94427.45
2019-02-05T01:42:56.809Z,94421.53
2019-02-05T01:43:19.728Z,94421.72
2019-02-05T01:43:42.808Z,94423.66
2019-02-05T01:44:06.508Z,94424.52
2019-02-05T01:44:29.589Z,94419.79
2019-02-05T01:44:52.611Z,94423.38
2019-02-05T01:45:15.729Z,94422.03
2019-02-05T01:45:38.571Z,94420.68
2019-02-05T01:46:01.429Z,94416.72
2019-02-05T01:46:24.649Z,94416.89
2019-02-05T01:46:47.609Z,94418.66
2019-02-05T01:47:10.449Z,94419.38
2019-02-05T01:47:34.509Z,94418.48
2019-02-05T01:47:57.489Z,94421.98
2019-02-05T01:48:20.490Z,94419.00
2019-02-05T01:48:43.429Z,94415.09
2019-02-05T01:49:08.908Z,94417.20
2019-02-05T01:49:33.589Z,94425.44
2019-02-05T01:49:56.569Z,94424.63
2019-02-05T01:50:19.500Z,94422.34
2019-02-05T01:50:43.489Z,94422.09
2019-02-05T01:51:06.368Z,94421.42
2019-02-05T01:51:29.829Z,94418.03
2019-02-05T01:51:52.570Z,94410.84
2019-02-05T01:52:15.711Z,94417.70
2019-02-05T01:52:38.949Z,94417.28
2019-02-05T01:53:01.782Z,94417.91
2019-02-05T01:53:26.229Z,94415.30
2019-02-05T01:53:48.969Z,94416.11
2019-02-05T01:54:12.431Z,94415.25
2019-02-05T01:54:35.409Z,94417.41
2019-02-05T01:54:58.309Z,94415.25
2019-02-05T01:55:21.409Z,94418.04
2019-02-05T01:55:44.369Z,94412.95
2019-02-05T01:56:07.268Z,94416.42
2019-02-05T01:56:40.152Z,94418.22
2019-02-05T01:56:54.733Z,94417.59
2019-02-05T01:57:17.548Z,94417.20
2019-02-05T01:57:40.592Z,94416.97
2019-02-05T01:58:04.218Z,94416.16
2019-02-05T01:58:27.391Z,94414.67
2019-02-05T01:58:50.257Z,94411.45
2019-02-05T01:59:13.253Z,94417.77
2019-02-05T01:59:38.188Z,94414.75
2019-02-05T02:00:01.609Z,94412.80
2019-02-05T02:00:24.707Z,94412.69
2019-02-05T02:00:47.573Z,94411.93
2019-02-05T02:01:10.528Z,94405.36
2019-02-05T02:01:33.888Z,94407.82
2019-02-05T02:01:56.869Z,94410.69
2019-02-05T02:02:19.657Z,94410.31
2019-02-05T02:02:42.549Z,94414.09
2019-02-05T02:03:06.511Z,94409.06
2019-02-05T02:03:29.369Z,94409.41
2019-02-05T02:03:52.449Z,94409.83
2019-02-05T02:04:15.370Z,94405.56
2019-02-05T02:04:38.270Z,94407.80
2019-02-05T02:05:01.257Z,94402.91
2019-02-05T02:05:24.350Z,94409.23
2019-02-05T02:05:47.249Z,94410.52
2019-02-05T02:06:10.209Z,94407.73
2019-02-05T02:06:33.729Z,94405.62
2019-02-05T02:06:56.954Z,94402.83
2019-02-05T02:07:19.808Z,94406.30
2019-02-05T02:07:42.689Z,94407.11
2019-02-05T02:08:05.709Z,94407.73
2019-02-05T02:08:28.809Z,94406.11
2019-02-05T02:08:51.628Z,94403.20
2019-02-05T02:09:14.549Z,94397.00
2019-02-05T02:09:37.489Z,94404.27
2019-02-05T02:10:03.629Z,94398.73
2019-02-05T02:10:27.329Z,94401.03
2019-02-05T02:10:50.279Z,94403.14
2019-02-05T02:11:13.189Z,94400.53
2019-02-05T02:11:36.709Z,94399.91
2019-02-05T02:11:59.488Z,94406.73
2019-02-05T02:12:22.768Z,94400.28
2019-02-05T02:12:46.627Z,94398.56
2019-02-05T02:13:09.537Z,94405.06
2019-02-05T02:13:34.248Z,94398.80
2019-02-05T02:13:56.949Z,94399.31
2019-02-05T02:14:19.809Z,94403.27
2019-02-05T02:14:43.068Z,94405.06
2019-02-05T02:15:06.710Z,94399.98
2019-02-05T02:15:30.189Z,94410.91
2019-02-05T02:15:53.469Z,94403.27
2019-02-05T02:16:17.049Z,94400.98
2019-02-05T02:16:40.009Z,94397.88
2019-02-05T02:17:02.771Z,94399.80
2019-02-05T02:17:25.867Z,94405.14
2019-02-05T02:17:48.869Z,94398.98
2019-02-05T02:18:11.689Z,94402.88
2019-02-05T02:18:35.353Z,94403.84
2019-02-05T02:18:58.428Z,94399.13
2019-02-05T02:19:21.409Z,94402.72
2019-02-05T02:19:44.406Z,94396.63
2019-02-05T02:20:07.252Z,94395.51
2019-02-05T02:20:30.249Z,94399.98
2019-02-05T02:20:54.091Z,94399.31
2019-02-05T02:21:16.928Z,94399.86
2019-02-05T02:21:39.708Z,94400.11
2019-02-05T02:22:02.750Z,94402.02
2019-02-05T02:22:25.709Z,94401.52
2019-02-05T02:22:48.729Z,94396.06
2019-02-05T02:23:12.489Z,94396.39
2019-02-05T02:23:35.409Z,94394.91
2019-02-05T02:23:58.329Z,94401.91
2019-02-05T02:24:21.129Z,94398.50
2019-02-05T02:24:45.149Z,94396.94
2019-02-05T02:25:07.969Z,94392.98
2019-02-05T02:25:30.890Z,94394.33
2019-02-05T02:25:54.010Z,94395.88
2019-02-05T02:26:16.829Z,94396.85
2019-02-05T02:26:39.969Z,94400.53
2019-02-05T02:27:02.890Z,94394.20
2019-02-05T02:27:25.888Z,94398.41
2019-02-05T02:27:48.869Z,94398.19
2019-02-05T02:28:11.968Z,94396.88
2019-02-05T02:28:35.449Z,94394.64
2019-02-05T02:28:58.308Z,94393.34
2019-02-05T02:29:21.088Z,94398.86
2019-02-05T02:29:44.128Z,94398.23
2019-02-05T02:30:07.030Z,94398.37
2019-02-05T02:30:30.005Z,94397.61
2019-02-05T02:30:52.911Z,94392.84
2019-02-05T02:31:15.649Z,94399.36
2019-02-05T02:31:38.516Z,94392.98
2019-02-05T02:32:01.471Z,94391.49
2019-02-05T02:32:24.729Z,94393.52
2019-02-05T02:32:48.452Z,94401.16
2019-02-05T02:33:11.469Z,94394.95
2019-02-05T02:33:34.389Z,94401.16
2019-02-05T02:33:57.749Z,94399.17
2019-02-05T02:34:20.657Z,94398.81
2019-02-05T02:34:43.569Z,94391.00
2019-02-05T02:35:06.435Z,94397.83
2019-02-05T02:35:30.029Z,94392.59
2019-02-05T02:35:52.868Z,94392.59
2019-02-05T02:36:15.890Z,94395.69
2019-02-05T02:36:38.709Z,94392.91
2019-02-05T02:37:01.597Z,94390.48
2019-02-05T02:37:25.328Z,94389.00
2019-02-05T02:37:48.909Z,94393.53
2019-02-05T02:38:12.010Z,94387.02
2019-02-05T02:38:35.009Z,94387.46
2019-02-05T02:38:57.972Z,94389.49
2019-02-05T02:39:21.009Z,94387.64
2019-02-05T02:39:44.389Z,94388.55
2019-02-05T02:40:07.208Z,94381.38
2019-02-05T02:40:30.270Z,94386.28
2019-02-05T02:40:53.150Z,94386.20
2019-02-05T02:41:16.629Z,94389.98
2019-02-05T02:41:39.456Z,94390.55
2019-02-05T02:42:02.231Z,94387.82
2019-02-05T02:42:26.208Z,94386.59
2019-02-05T02:42:49.449Z,94385.15
2019-02-05T02:43:12.488Z,94384.98
2019-02-05T02:43:35.437Z,94386.40
2019-02-05T02:43:58.413Z,94391.92
2019-02-05T02:44:21.431Z,94387.33
2019-02-05T02:44:44.289Z,94389.19
2019-02-05T02:45:07.650Z,94391.00
2019-02-05T02:45:31.289Z,94386.45
2019-02-05T02:45:55.828Z,94390.11
2019-02-05T02:46:19.569Z,94389.44
2019-02-05T02:46:42.988Z,94391.30
2019-02-05T02:47:05.939Z,94394.70
2019-02-05T02:47:28.830Z,94391.49
2019-02-05T02:47:51.649Z,94392.67
2019-02-05T02:48:14.569Z,94389.08
2019-02-05T02:48:37.409Z,94392.30
2019-02-05T02:49:00.330Z,94389.05
2019-02-05T02:49:23.209Z,94389.88
2019-02-05T02:49:46.248Z,94392.47
2019-02-05T02:50:09.089Z,94385.28
2019-02-05T02:50:31.849Z,94386.21
2019-02-05T02:50:54.729Z,94391.55
2019-02-05T02:51:17.569Z,94392.45
2019-02-05T02:51:40.310Z,94389.56
2019-02-05T02:52:03.090Z,94390.42
2019-02-05T02:52:25.929Z,94394.95
2019-02-05T02:52:48.770Z,94395.58
2019-02-05T02:53:11.608Z,94390.73
2019-02-05T02:53:34.469Z,94393.03
2019-02-05T02:53:57.229Z,94389.67
2019-02-05T02:54:20.290Z,94391.64
2019-02-05T02:54:43.212Z,94393.44
2019-02-05T02:55:06.049Z,94397.34
2019-02-05T02:55:29.071Z,94389.69
2019-02-05T02:55:51.990Z,94394.25
2019-02-05T02:56:14.907Z,94391.53
2019-02-05T02:56:37.808Z,94391.71
2019-02-05T02:57:04.887Z,94394.41
2019-02-05T02:57:25.389Z,94394.23
2019-02-05T02:57:48.249Z,94388.40
2019-02-05T02:58:13.596Z,94389.52
2019-02-05T02:58:35.892Z,94385.14
2019-02-05T02:58:59.009Z,94386.73
2019-02-05T02:59:21.929Z,94387.49
2019-02-05T02:59:44.751Z,94388.44
2019-02-05T03:00:07.771Z,94388.86
2019-02-05T03:00:30.688Z,94386.70
2019-02-05T03:00:53.549Z,94389.56
2019-02-05T03:01:17.509Z,94384.00
2019-02-05T03:01:40.413Z,94385.95
2019-02-05T03:02:03.271Z,94389.44
2019-02-05T03:02:26.111Z,94388.81
2019-02-05T03:02:49.075Z,94390.25
2019-02-05T03:03:12.453Z,94381.14
2019-02-05T03:03:39.830Z,94385.66
2019-02-05T03:04:04.410Z,94383.37
2019-02-05T03:04:29.008Z,94388.58
2019-02-05T03:04:52.849Z,94383.69
2019-02-05T03:05:15.881Z,94383.12
2019-02-05T03:05:39.590Z,94386.70
2019-02-05T03:06:02.829Z,94386.08
2019-02-05T03:06:25.730Z,94382.55
2019-02-05T03:06:49.228Z,94384.16
2019-02-05T03:07:12.051Z,94387.39
2019-02-05T03:07:34.931Z,94386.40
2019-02-05T03:07:58.529Z,94380.20
2019-02-05T03:08:21.409Z,94381.81
2019-02-05T03:08:44.289Z,94377.91
2019-02-05T03:09:09.588Z,94382.80
2019-02-05T03:09:32.389Z,94380.69
2019-02-05T03:09:55.333Z,94382.49
2019-02-05T03:10:18.711Z,94382.13
2019-02-05T03:10:41.530Z,94383.06
2019-02-05T03:11:04.390Z,94371.27
2019-02-05T03:11:28.090Z,94371.27
2019-02-05T03:11:51.290Z,94384.16
2019-02-05T03:12:14.079Z,94382.69
2019-02-05T03:12:37.489Z,94380.06
2019-02-05T03:13:00.255Z,94378.83
2019-02-05T03:13:23.169Z,94382.24
2019-02-05T03:13:46.530Z,94380.42
2019-02-05T03:14:09.366Z,94382.66
2019-02-05T03:14:32.144Z,94382.30
2019-02-05T03:14:55.379Z,94385.45
2019-02-05T03:15:18.156Z,94376.60
2019-02-05T03:15:40.971Z,94382.92
2019-02-05T03:16:03.770Z,94385.71
2019-02-05T03:16:26.610Z,94384.18
2019-02-05T03:16:49.592Z,94382.56
2019-02-05T03:17:12.409Z,94381.06
2019-02-05T03:17:35.249Z,94380.52
2019-02-05T03:17:58.127Z,94381.08
2019-02-05T03:18:20.989Z,94388.19
2019-02-05T03:18:43.971Z,94381.00
2019-02-05T03:19:06.948Z,94386.70
2019-02-05T03:19:29.929Z,94384.23
2019-02-05T03:19:56.191Z,94380.69
2019-02-05T03:20:19.069Z,94378.89
2019-02-05T03:20:41.898Z,94383.30
2019-02-05T03:21:06.389Z,94380.69
2019-02-05T03:21:30.469Z,94373.81
2019-02-05T03:21:53.430Z,94384.55
2019-02-05T03:22:16.216Z,94380.64
2019-02-05T03:22:40.332Z,94380.45
2019-02-05T03:23:03.150Z,94381.88
2019-02-05T03:23:26.136Z,94378.53
2019-02-05T03:23:49.075Z,94381.26
2019-02-05T03:24:12.609Z,94385.35
2019-02-05T03:24:35.450Z,94380.90
2019-02-05T03:25:06.330Z,94384.49
2019-02-05T03:25:30.432Z,94381.45
2019-02-05T03:25:58.893Z,94389.52
2019-02-05T03:26:27.330Z,94388.71
2019-02-05T03:26:55.311Z,94389.52
2019-02-05T03:27:19.369Z,94385.84
2019-02-05T03:27:54.790Z,94388.50
2019-02-05T03:28:08.729Z,94387.15
2019-02-05T03:28:34.369Z,94391.55
2019-02-05T03:29:00.929Z,94393.34
2019-02-05T03:29:26.783Z,94388.06
2019-02-05T03:29:50.694Z,94387.26
2019-02-05T03:30:17.620Z,94388.19
2019-02-05T03:30:43.751Z,94395.20
2019-02-05T03:31:12.650Z,94388.69
2019-02-05T03:31:45.442Z,94393.27
2019-02-05T03:32:22.789Z,94391.16
2019-02-05T03:32:38.031Z,94391.36
2019-02-05T03:33:05.664Z,94392.04
2019-02-05T03:34:16.430Z,94386.52
2019-02-05T03:34:44.688Z,94389.44
2019-02-05T03:35:17.199Z,94387.52
2019-02-05T03:36:12.249Z,94388.55
2019-02-05T03:36:19.030Z,94390.48
2019-02-05T03:36:43.450Z,94393.70
2019-02-05T03:37:25.369Z,94392.35
2019-02-05T03:37:55.149Z,94389.75
2019-02-05T03:38:20.984Z,94390.11
2019-02-05T03:38:44.430Z,94390.49
2019-02-05T03:39:53.271Z,94390.55
2019-02-05T03:40:19.530Z,94387.00
2019-02-05T03:40:44.029Z,94387.43
2019-02-05T03:41:13.629Z,94394.38
2019-02-05T03:41:39.594Z,94388.81
2019-02-05T03:42:12.891Z,94390.03
2019-02-05T03:43:23.188Z,94395.14
2019-02-05T03:43:50.209Z,94391.97
2019-02-05T03:44:17.909Z,94390.67
2019-02-05T03:44:42.509Z,94397.25
2019-02-05T03:45:06.108Z,94392.84
2019-02-05T03:45:29.027Z,94398.41
2019-02-05T03:45:51.868Z,94391.41
2019-02-05T03:46:15.328Z,94395.09
2019-02-05T03:46:38.409Z,94392.61
2019-02-05T03:47:01.750Z,94389.67
2019-02-05T03:47:25.290Z,94392.23
2019-02-05T03:47:48.148Z,94396.39
2019-02-05T03:48:11.088Z,94392.62
2019-02-05T03:48:35.209Z,94397.31
2019-02-05T03:48:58.130Z,94395.27
2019-02-05T03:49:20.991Z,94396.27
2019-02-05T03:49:44.389Z,94394.58
2019-02-05T03:50:07.169Z,94391.66
2019-02-05T03:50:31.500Z,94398.50
2019-02-05T03:50:55.191Z,94394.75
2019-02-05T03:51:19.771Z,94399.73
2019-02-05T03:51:42.590Z,94398.31
2019-02-05T03:52:06.467Z,94394.41
2019-02-05T03:52:30.909Z,94397.97
2019-02-05T03:52:54.349Z,94398.19
2019-02-05T03:53:17.868Z,94394.91
2019-02-05T03:53:42.289Z,94391.97
2019-02-05T03:54:05.119Z,94393.97
2019-02-05T03:54:28.789Z,94396.50
2019-02-05T03:54:51.809Z,94391.86
2019-02-05T03:55:15.129Z,94393.80
2019-02-05T03:55:38.051Z,94393.97
2019-02-05T03:56:01.036Z,94388.58
2019-02-05T03:56:25.472Z,94390.02
2019-02-05T03:56:48.369Z,94388.89
2019-02-05T03:57:11.189Z,94391.81
2019-02-05T03:57:33.989Z,94390.17
2019-02-05T03:57:56.969Z,94387.88
2019-02-05T03:58:20.031Z,94391.99
2019-02-05T03:58:43.370Z,94388.50
2019-02-05T03:59:10.609Z,94385.41
2019-02-05T03:59:33.469Z,94388.06
2019-02-05T03:59:56.490Z,94386.66
2019-02-05T04:00:19.568Z,94389.13
2019-02-05T04:00:42.910Z,94387.08
2019-02-05T04:01:15.009Z,94390.92
2019-02-05T04:01:39.589Z,94382.00
2019-02-05T04:02:03.770Z,94389.08
2019-02-05T04:02:27.030Z,94386.34
2019-02-05T04:02:51.769Z,94389.30
2019-02-05T04:03:14.750Z,94385.13
2019-02-05T04:03:40.048Z,94386.44
2019-02-05T04:04:02.769Z,94383.08
2019-02-05T04:04:27.164Z,94379.12
2019-02-05T04:04:51.188Z,94379.60
2019-02-05T04:05:15.849Z,94382.52
2019-02-05T04:05:38.833Z,94386.42
2019-02-05T04:06:02.646Z,94379.35
2019-02-05T04:06:25.607Z,94380.73
2019-02-05T04:06:48.469Z,94379.17
2019-02-05T04:07:11.369Z,94374.41
2019-02-05T04:07:34.188Z,94378.05
2019-02-05T04:07:57.029Z,94375.65
2019-02-05T04:08:19.889Z,94376.69
2019-02-05T04:08:42.769Z,94372.30
2019-02-05T04:09:08.569Z,94374.95
2019-02-05T04:09:32.432Z,94374.28
2019-02-05T04:09:55.453Z,94370.33
2019-02-05T04:10:18.370Z,94367.58
2019-02-05T04:10:41.269Z,94371.92
2019-02-05T04:11:04.128Z,94368.16
2019-02-05T04:11:26.968Z,94367.22
2019-02-05T04:11:49.888Z,94368.52
2019-02-05T04:12:13.234Z,94368.83
2019-02-05T04:12:36.808Z,94369.09
2019-02-05T04:13:01.952Z,94368.34
2019-02-05T04:13:25.469Z,94365.19
2019-02-05T04:13:48.330Z,94369.82
2019-02-05T04:14:22.050Z,94371.48
2019-02-05T04:14:46.853Z,94365.89
2019-02-05T04:15:11.251Z,94369.70
2019-02-05T04:16:21.868Z,94367.12
2019-02-05T04:16:51.628Z,94368.03
2019-02-05T04:17:14.508Z,94366.31
2019-02-05T04:17:40.088Z,94366.63
2019-02-05T04:18:02.830Z,94366.73
2019-02-05T04:18:27.009Z,94367.48
2019-02-05T04:18:51.649Z,94367.67
2019-02-05T04:19:19.189Z,94366.11
2019-02-05T04:20:08.003Z,94365.14
2019-02-05T04:20:26.509Z,94363.01
2019-02-05T04:21:37.229Z,94365.02
2019-02-05T04:22:02.262Z,94362.36
2019-02-05T04:22:29.009Z,94365.14
2019-02-05T04:23:08.009Z,94361.34
2019-02-05T04:23:35.268Z,94365.77
2019-02-05T04:23:57.072Z,94365.32
2019-02-05T04:24:38.069Z,94365.86
2019-02-05T04:25:08.049Z,94364.07
2019-02-05T04:25:39.111Z,94360.84
2019-02-05T04:26:09.189Z,94361.40
2019-02-05T04:26:37.818Z,94361.47
2019-02-05T04:27:12.068Z,94359.44
2019-02-05T04:27:45.060Z,94366.69
2019-02-05T04:28:03.495Z,94358.55
2019-02-05T04:28:26.442Z,94358.13
2019-02-05T04:28:54.338Z,94361.34
2019-02-05T04:29:28.288Z,94361.55
2019-02-05T04:29:54.374Z,94355.77
2019-02-05T04:30:18.470Z,94365.55
2019-02-05T04:30:41.428Z,94359.62
2019-02-05T04:31:08.688Z,94358.01
2019-02-05T04:31:35.968Z,94359.68
2019-02-05T04:32:00.369Z,94356.58
2019-02-05T04:32:25.149Z,94360.89
2019-02-05T04:32:50.950Z,94355.77
2019-02-05T04:33:20.451Z,94358.01
2019-02-05T04:33:51.449Z,94357.64
2019-02-05T04:34:57.950Z,94356.62
2019-02-05T04:35:27.808Z,94350.56
2019-02-05T04:35:54.049Z,94355.14
2019-02-05T04:36:18.030Z,94356.08
2019-02-05T04:36:40.852Z,94361.59
2019-02-05T04:37:03.611Z,94358.14
2019-02-05T04:37:26.427Z,94357.31
2019-02-05T04:37:52.811Z,94355.83
2019-02-05T04:38:15.689Z,94359.86
2019-02-05T04:38:40.310Z,94354.84
2019-02-05T04:39:05.188Z,94358.69
2019-02-05T04:39:29.654Z,94357.52
2019-02-05T04:40:11.071Z,94357.46
2019-02-05T04:40:34.050Z,94361.86
2019-02-05T04:40:56.864Z,94357.44
2019-02-05T04:41:19.788Z,94358.43
2019-02-05T04:41:42.650Z,94350.25
2019-02-05T04:42:05.728Z,94349.20
2019-02-05T04:42:28.608Z,94352.13
2019-02-05T04:42:52.690Z,94352.75
2019-02-05T04:43:17.056Z,94353.73
2019-02-05T04:43:40.288Z,94355.02
2019-02-05T04:44:03.169Z,94352.44
2019-02-05T04:44:31.328Z,94352.60
2019-02-05T04:45:34.103Z,94352.80
2019-02-05T04:45:59.771Z,94352.73
2019-02-05T04:46:27.257Z,94354.47
2019-02-05T04:46:51.329Z,94352.13
2019-02-05T04:47:15.789Z,94352.98
2019-02-05T04:47:41.109Z,94352.41
2019-02-05T04:48:10.568Z,94353.72
2019-02-05T04:48:43.806Z,94356.52
2019-02-05T04:49:19.429Z,94357.06
2019-02-05T04:49:45.211Z,94353.17
2019-02-05T04:50:09.048Z,94349.39
2019-02-05T04:50:33.469Z,94352.44